createdAt,value
2023-02-11T00:01:16.456Z,9.32
2023-02-11T00:03:43.432Z,4.95
2023-02-11T00:06:11.586Z,5.63
2023-02-11T00:08:39.228Z,7.72
2023-02-11T00:11:06.731Z,8.18
2023-02-11T00:13:33.926Z,7.03
2023-02-11T00:16:00.786Z,8.68
2023-02-11T00:18:28.301Z,6.13
2023-02-11T00:20:55.172Z,7.47
2023-02-11T00:23:22.040Z,5.00
2023-02-11T00:25:49.155Z,5.35
2023-02-11T00:28:16.330Z,4.95
2023-02-11T00:30:43.541Z,7.05
2023-02-11T00:33:10.442Z,6.90
2023-02-11T00:35:38.794Z,7.40
2023-02-11T00:38:07.897Z,8.48
2023-02-11T00:40:34.793Z,8.20
2023-02-11T00:43:03.481Z,6.57
2023-02-11T00:45:30.867Z,7.88
2023-02-11T00:47:58.081Z,6.45
2023-02-11T00:50:25.371Z,5.95
2023-02-11T00:52:52.244Z,6.68
2023-02-11T00:55:19.186Z,7.18
2023-02-11T00:57:46.131Z,8.07
2023-02-11T01:00:14.489Z,7.47
2023-02-11T01:02:41.481Z,7.45
2023-02-11T01:05:09.962Z,7.43
2023-02-11T01:07:36.914Z,5.25
2023-02-11T01:10:04.648Z,4.00
2023-02-11T01:12:33.474Z,7.32
2023-02-11T01:15:01.421Z,6.10
2023-02-11T01:17:28.357Z,7.68
2023-02-11T01:19:55.291Z,6.30
2023-02-11T01:22:22.260Z,7.38
2023-02-11T01:24:49.199Z,6.78
2023-02-11T01:27:16.190Z,6.75
2023-02-11T01:29:44.693Z,4.55
2023-02-11T01:32:11.750Z,4.32
2023-02-11T01:34:38.635Z,6.05
2023-02-11T01:37:05.709Z,6.60
2023-02-11T01:39:36.226Z,6.53
2023-02-11T01:42:03.200Z,6.15
2023-02-11T01:44:34.670Z,7.07
2023-02-11T01:47:01.901Z,6.40
2023-02-11T01:49:38.963Z,5.50
2023-02-11T01:52:19.702Z,4.95
2023-02-11T01:55:09.810Z,6.47
2023-02-11T01:57:40.029Z,5.45
2023-02-11T02:00:15.636Z,7.13
2023-02-11T02:03:07.007Z,6.50
2023-02-11T02:05:49.708Z,7.35
2023-02-11T02:08:29.582Z,6.00
2023-02-11T02:10:58.615Z,5.45
2023-02-11T02:13:25.996Z,5.72
2023-02-11T02:15:58.307Z,3.25
2023-02-11T02:18:48.946Z,3.72
2023-02-11T02:22:01.652Z,5.68
2023-02-11T02:24:48.501Z,4.57
2023-02-11T02:27:54.885Z,5.22
2023-02-11T02:30:30.647Z,5.88
2023-02-11T02:33:23.456Z,5.75
2023-02-11T02:36:21.005Z,5.30
2023-02-11T02:39:26.361Z,5.47
2023-02-11T02:41:55.221Z,4.05
2023-02-11T02:44:22.481Z,4.57
2023-02-11T02:46:49.377Z,6.88
2023-02-11T02:49:17.325Z,7.10
2023-02-11T02:52:16.674Z,5.85
2023-02-11T02:55:17.125Z,5.63
2023-02-11T02:58:08.740Z,5.45
2023-02-11T03:01:01.976Z,5.07
2023-02-11T03:03:34.963Z,6.10
2023-02-11T03:06:09.519Z,5.28
2023-02-11T03:08:49.448Z,4.45
2023-02-11T03:11:19.621Z,4.18
2023-02-11T03:13:48.790Z,7.20
2023-02-11T03:16:21.366Z,5.80
2023-02-11T03:18:52.909Z,5.53
2023-02-11T03:21:20.946Z,5.50
2023-02-11T03:23:55.293Z,4.68
2023-02-11T03:26:39.221Z,5.93
2023-02-11T03:29:14.008Z,4.35
2023-02-11T03:31:51.650Z,4.07
2023-02-11T03:34:36.458Z,3.85
2023-02-11T03:37:09.474Z,5.03
2023-02-11T03:39:40.799Z,4.22
2023-02-11T03:42:10.909Z,4.97
2023-02-11T03:44:46.616Z,5.28
2023-02-11T03:47:15.559Z,5.35
2023-02-11T03:49:46.146Z,6.60
2023-02-11T03:52:14.879Z,3.83
2023-02-11T03:54:43.964Z,4.35
2023-02-11T03:57:10.997Z,5.30
2023-02-11T03:59:55.185Z,4.90
2023-02-11T04:02:29.458Z,4.72
2023-02-11T04:04:56.397Z,5.32
2023-02-11T04:07:23.715Z,6.93
2023-02-11T04:09:50.829Z,5.70
2023-02-11T04:12:17.772Z,5.57
2023-02-11T04:14:44.888Z,5.53
2023-02-11T04:17:12.481Z,3.72
2023-02-11T04:19:39.837Z,5.18
2023-02-11T04:22:07.113Z,6.10
2023-02-11T04:24:34.714Z,6.35
2023-02-11T04:27:01.697Z,6.05
2023-02-11T04:29:28.744Z,5.82
2023-02-11T04:31:56.009Z,5.93
2023-02-11T04:34:23.416Z,5.15
2023-02-11T04:36:51.136Z,6.65
2023-02-11T04:39:18.109Z,5.32
2023-02-11T04:41:45.009Z,5.35
2023-02-11T04:44:11.885Z,3.60
2023-02-11T04:46:38.848Z,2.95
2023-02-11T04:49:05.944Z,4.97
2023-02-11T04:51:33.307Z,6.43
2023-02-11T04:54:00.187Z,6.38
2023-02-11T04:56:27.088Z,6.85
2023-02-11T04:58:54.017Z,5.90
2023-02-11T05:01:20.937Z,5.07
2023-02-11T05:03:47.950Z,5.93
2023-02-11T05:06:14.986Z,5.82
2023-02-11T05:08:41.951Z,5.15
2023-02-11T05:11:17.582Z,7.70
2023-02-11T05:13:44.609Z,5.00
2023-02-11T05:16:12.043Z,6.82
2023-02-11T05:18:41.020Z,5.32
2023-02-11T05:21:10.070Z,5.63
2023-02-11T05:23:37.235Z,6.13
2023-02-11T05:26:05.186Z,6.72
2023-02-11T05:28:32.831Z,7.30
2023-02-11T05:30:59.927Z,6.82
2023-02-11T05:33:26.916Z,5.90
2023-02-11T05:36:00.256Z,6.18
2023-02-11T05:38:27.798Z,7.28
2023-02-11T05:40:54.981Z,7.03
2023-02-11T05:43:21.978Z,4.55
2023-02-11T05:45:49.091Z,2.88
2023-02-11T05:48:16.584Z,5.78
2023-02-11T05:50:43.981Z,4.50
2023-02-11T05:53:11.547Z,4.15
2023-02-11T05:55:38.925Z,5.97
2023-02-11T05:58:06.708Z,6.65
2023-02-11T06:00:34.208Z,3.33
2023-02-11T06:03:01.169Z,3.92
2023-02-11T06:05:28.107Z,3.42
2023-02-11T06:07:55.259Z,4.15
2023-02-11T06:10:22.196Z,4.10
2023-02-11T06:12:49.289Z,4.25
2023-02-11T06:15:16.385Z,4.10
2023-02-11T06:17:43.265Z,4.80
2023-02-11T06:20:11.288Z,3.13
2023-02-11T06:22:38.476Z,3.03
2023-02-11T06:25:05.810Z,2.70
2023-02-11T06:27:32.893Z,2.78
2023-02-11T06:29:59.789Z,2.63
2023-02-11T06:32:45.630Z,3.80
2023-02-11T06:35:14.557Z,4.13
2023-02-11T06:37:42.466Z,3.10
2023-02-11T06:40:10.823Z,2.30
2023-02-11T06:42:39.394Z,1.73
2023-02-11T06:45:09.169Z,2.22
2023-02-11T06:47:36.275Z,2.88
2023-02-11T06:50:03.997Z,3.03
2023-02-11T06:52:30.976Z,2.95
2023-02-11T06:54:57.870Z,2.78
2023-02-11T06:57:24.946Z,2.50
2023-02-11T06:59:52.044Z,2.35
2023-02-11T07:02:20.869Z,2.25
2023-02-11T07:04:48.036Z,2.97
2023-02-11T07:07:14.996Z,3.03
2023-02-11T07:09:42.172Z,2.92
2023-02-11T07:12:11.988Z,3.28
2023-02-11T07:14:39.188Z,1.98
2023-02-11T07:17:06.170Z,2.83
2023-02-11T07:19:33.206Z,3.22
2023-02-11T07:22:00.293Z,3.22
2023-02-11T07:24:27.423Z,3.05
2023-02-11T07:26:54.595Z,3.35
2023-02-11T07:29:21.919Z,2.65
2023-02-11T07:31:49.050Z,1.67
2023-02-11T07:34:16.080Z,2.60
2023-02-11T07:36:46.044Z,4.43
2023-02-11T07:39:13.122Z,3.47
2023-02-11T07:41:40.266Z,3.83
2023-02-11T07:44:07.606Z,3.78
2023-02-11T07:46:35.946Z,3.30
2023-02-11T07:49:03.190Z,2.63
2023-02-11T07:51:31.606Z,3.55
2023-02-11T07:54:00.001Z,4.95
2023-02-11T07:56:28.001Z,5.30
2023-02-11T07:58:56.907Z,4.63
2023-02-11T08:01:28.573Z,5.53
2023-02-11T08:03:57.090Z,4.80
2023-02-11T08:06:27.065Z,4.85
2023-02-11T08:08:54.278Z,3.80
2023-02-11T08:11:26.657Z,6.10
2023-02-11T08:13:54.434Z,5.70
2023-02-11T08:16:25.011Z,6.28
2023-02-11T08:18:53.307Z,6.22
2023-02-11T08:21:20.906Z,6.00
2023-02-11T08:23:48.080Z,5.38
2023-02-11T08:26:18.376Z,7.65
2023-02-11T08:28:46.871Z,6.13
2023-02-11T08:31:23.904Z,6.50
2023-02-11T08:33:51.529Z,6.63
2023-02-11T08:36:24.252Z,4.68
2023-02-11T08:38:51.520Z,4.75
2023-02-11T08:41:18.498Z,6.68
2023-02-11T08:43:47.354Z,7.20
2023-02-11T08:46:17.890Z,6.90
2023-02-11T08:48:45.966Z,5.63
2023-02-11T08:51:18.853Z,5.88
2023-02-11T08:53:46.302Z,5.38
2023-02-11T08:56:15.010Z,5.50
2023-02-11T08:58:42.331Z,8.27
2023-02-11T09:01:10.986Z,7.45
2023-02-11T09:03:37.909Z,8.48
2023-02-11T09:06:06.756Z,7.18
2023-02-11T09:08:38.816Z,7.18
2023-02-11T09:11:05.945Z,6.35
2023-02-11T09:13:33.694Z,6.38
2023-02-11T09:16:02.119Z,7.45
2023-02-11T09:18:29.335Z,8.13
2023-02-11T09:21:07.432Z,8.48
2023-02-11T09:23:34.744Z,6.38
2023-02-11T09:26:20.080Z,6.65
2023-02-11T09:28:47.795Z,7.38
2023-02-11T09:31:17.382Z,7.95
2023-02-11T09:33:49.970Z,8.23
2023-02-11T09:36:20.139Z,8.50
2023-02-11T09:38:47.720Z,7.68
2023-02-11T09:41:48.061Z,7.53
2023-02-11T09:44:22.503Z,6.95
2023-02-11T10:18:17.542Z,8.40
2023-02-11T10:21:15.091Z,8.52
2023-02-11T10:26:19.179Z,7.95
2023-02-11T10:28:53.217Z,7.00
2023-02-11T10:31:34.363Z,9.50
2023-02-11T10:34:12.093Z,9.10
2023-02-11T10:36:42.301Z,8.45
2023-02-11T10:39:20.936Z,5.82
2023-02-11T10:41:55.495Z,7.68
2023-02-11T10:44:31.416Z,9.68
2023-02-11T10:47:05.567Z,8.40
2023-02-11T10:49:41.711Z,9.18
2023-02-11T10:52:17.761Z,9.90
2023-02-11T10:55:03.096Z,8.73
2023-02-11T10:58:03.103Z,9.48
2023-02-11T11:00:42.454Z,8.57
2023-02-11T11:03:40.995Z,8.90
2023-02-11T11:06:10.760Z,10.52
2023-02-11T11:08:51.759Z,8.13
2023-02-11T11:11:21.614Z,8.82
2023-02-11T11:14:03.434Z,9.20
2023-02-11T11:16:32.709Z,9.95
2023-02-11T11:19:08.314Z,9.68
2023-02-11T11:21:51.587Z,10.68
2023-02-11T11:24:21.163Z,8.10
2023-02-11T11:26:52.011Z,10.13
2023-02-11T11:29:39.847Z,9.88
2023-02-11T11:32:16.341Z,9.90
2023-02-11T11:34:55.663Z,9.55
2023-02-11T11:37:32.169Z,8.13
2023-02-11T11:42:37.559Z,8.73
2023-02-11T11:45:16.489Z,10.60
2023-02-11T11:48:11.744Z,9.30
2023-02-11T11:50:50.299Z,9.48
2023-02-11T11:53:45.377Z,7.55
2023-02-11T11:56:14.679Z,9.10
2023-02-11T11:58:41.729Z,8.75
2023-02-11T12:01:20.737Z,9.98
2023-02-11T12:04:14.373Z,9.60
2023-02-11T12:07:04.051Z,8.82
2023-02-11T12:10:07.171Z,8.20
2023-02-11T12:12:53.151Z,6.63
2023-02-11T12:15:41.410Z,7.03
2023-02-11T12:18:36.222Z,8.43
2023-02-11T12:21:23.237Z,9.02
2023-02-11T12:23:56.032Z,8.30
2023-02-11T12:26:29.107Z,7.18
2023-02-11T12:29:19.217Z,8.75
2023-02-11T12:31:56.656Z,6.88
2023-02-11T12:34:49.780Z,7.40
2023-02-11T12:37:38.171Z,6.35
2023-02-11T12:40:17.095Z,6.32
2023-02-11T12:43:08.685Z,5.93
2023-02-11T12:46:00.395Z,6.47
2023-02-11T12:48:56.737Z,6.30
2023-02-11T12:51:36.803Z,7.53
2023-02-11T12:54:38.114Z,6.95
2023-02-11T12:57:36.511Z,6.90
2023-02-11T13:00:26.885Z,6.63
2023-02-11T13:03:02.299Z,6.50
2023-02-11T13:05:43.103Z,6.95
2023-02-11T13:08:37.659Z,5.43
2023-02-11T13:11:14.368Z,5.55
2023-02-11T13:13:56.303Z,5.60
2023-02-11T13:16:44.654Z,5.82
2023-02-11T13:19:14.658Z,6.80
2023-02-11T13:22:07.856Z,6.55
2023-02-11T13:24:42.470Z,6.78
2023-02-11T13:27:30.082Z,6.88
2023-02-11T13:30:21.351Z,6.50
2023-02-11T13:32:54.175Z,7.35
2023-02-11T13:35:29.775Z,6.70
2023-02-11T13:37:59.165Z,6.78
2023-02-11T13:40:37.870Z,5.53
2023-02-11T13:43:07.282Z,7.15
2023-02-11T13:45:44.431Z,6.68
2023-02-11T13:48:20.384Z,6.68
2023-02-11T13:50:51.220Z,6.15
2023-02-11T13:53:19.258Z,6.15
2023-02-11T13:55:49.227Z,6.70
2023-02-11T13:58:17.665Z,6.78
2023-02-11T14:00:50.693Z,7.57
2023-02-11T14:04:06.836Z,6.47
2023-02-11T14:06:52.426Z,6.15
2023-02-11T14:09:22.046Z,5.57
2023-02-11T14:12:26.373Z,6.63
2023-02-11T14:15:03.821Z,5.75
2023-02-11T14:17:34.447Z,6.28
2023-02-11T14:20:04.712Z,5.80
2023-02-11T14:22:44.359Z,5.70
2023-02-11T14:25:22.964Z,6.70
2023-02-11T14:28:16.472Z,6.63
2023-02-11T14:31:03.974Z,6.82
2023-02-11T14:33:42.566Z,6.90
2023-02-11T14:36:36.971Z,5.82
2023-02-11T14:39:18.523Z,6.28
2023-02-11T14:41:48.970Z,7.10
2023-02-11T14:44:20.739Z,6.72
2023-02-11T14:46:50.918Z,6.20
2023-02-11T14:49:29.372Z,7.03
2023-02-11T14:52:04.341Z,6.10
2023-02-11T14:54:32.450Z,8.85
2023-02-11T14:57:06.638Z,8.55
2023-02-11T14:59:33.614Z,8.00
2023-02-11T15:02:00.501Z,7.68
2023-02-11T15:04:33.669Z,7.60
2023-02-11T15:07:07.096Z,8.30
2023-02-11T15:09:42.771Z,7.88
2023-02-11T15:12:28.614Z,8.13
2023-02-11T15:14:59.138Z,8.45
2023-02-11T15:17:30.766Z,7.57
2023-02-11T15:20:01.979Z,6.60
2023-02-11T15:22:33.232Z,8.82
2023-02-11T15:25:15.069Z,6.95
2023-02-11T15:27:44.807Z,6.35
2023-02-11T15:30:23.986Z,6.82
2023-02-11T15:32:58.797Z,6.57
2023-02-11T15:35:44.589Z,7.18
2023-02-11T15:38:13.592Z,7.82
2023-02-11T15:40:40.522Z,7.55
2023-02-11T15:43:10.148Z,8.23
2023-02-11T15:45:44.403Z,8.30
2023-02-11T15:48:18.837Z,8.07
2023-02-11T15:50:55.571Z,8.25
2023-02-11T15:53:29.329Z,8.30
2023-02-11T15:56:25.711Z,7.15
2023-02-11T15:58:56.130Z,7.90
2023-02-11T16:01:37.442Z,8.68
2023-02-11T16:04:05.849Z,7.32
2023-02-11T16:06:41.088Z,8.18
2023-02-11T16:09:13.682Z,8.60
2023-02-11T16:11:46.303Z,8.80
2023-02-11T16:14:30.041Z,7.70
2023-02-11T16:17:03.886Z,7.70
2023-02-11T16:19:32.977Z,8.35
2023-02-11T16:22:08.568Z,8.13
2023-02-11T16:24:38.079Z,8.45
2023-02-11T16:27:29.832Z,7.72
2023-02-11T16:29:58.691Z,7.38
2023-02-11T16:32:28.120Z,8.82
2023-02-11T16:34:58.709Z,7.18
2023-02-11T16:37:25.990Z,8.15
2023-02-11T16:39:58.451Z,8.57
2023-02-11T16:42:25.575Z,8.23
2023-02-11T16:44:52.503Z,8.27
2023-02-11T16:47:28.806Z,7.50
2023-02-11T16:49:56.895Z,7.93
2023-02-11T16:52:24.549Z,8.77
2023-02-11T16:54:51.817Z,8.85
2023-02-11T16:57:29.966Z,9.43
2023-02-11T16:59:59.228Z,8.90
2023-02-11T17:02:27.635Z,7.25
2023-02-11T17:04:56.120Z,8.18
2023-02-11T17:07:23.211Z,9.13
2023-02-11T17:09:51.088Z,9.23
2023-02-11T17:12:18.568Z,8.98
2023-02-11T17:14:45.632Z,9.00
2023-02-11T17:17:13.069Z,8.43
2023-02-11T17:19:40.341Z,9.32
2023-02-11T17:22:07.396Z,9.02
2023-02-11T17:24:34.275Z,8.90
2023-02-11T17:27:01.139Z,8.82
2023-02-11T17:29:28.480Z,8.27
2023-02-11T17:31:55.521Z,7.43
2023-02-11T17:34:23.285Z,7.88
2023-02-11T17:36:50.363Z,7.03
2023-02-11T17:39:17.288Z,7.25
2023-02-11T17:41:44.221Z,8.73
2023-02-11T17:44:12.597Z,9.77
2023-02-11T17:46:39.740Z,6.78
2023-02-11T17:49:06.726Z,7.80
2023-02-11T17:51:36.286Z,7.85
2023-02-11T17:54:10.977Z,7.13
2023-02-11T17:56:40.212Z,8.20
2023-02-11T17:59:08.826Z,7.72
2023-02-11T18:01:37.053Z,7.53
2023-02-11T18:04:05.435Z,7.50
2023-02-11T18:06:33.953Z,6.90
2023-02-11T18:09:04.250Z,8.43
2023-02-11T18:11:33.188Z,7.78
2023-02-11T18:14:01.865Z,8.60
2023-02-11T18:16:30.558Z,6.93
2023-02-11T18:18:59.003Z,7.05
2023-02-11T18:21:26.132Z,7.50
2023-02-11T18:23:53.775Z,8.45
2023-02-11T18:26:22.077Z,7.85
2023-02-11T18:28:49.323Z,7.53
2023-02-11T18:31:17.540Z,6.88
2023-02-11T18:33:45.022Z,7.75
2023-02-11T18:36:15.388Z,7.75
2023-02-11T18:38:44.349Z,8.30
2023-02-11T18:41:12.011Z,7.43
2023-02-11T18:43:40.263Z,7.80
2023-02-11T18:46:13.436Z,7.63
2023-02-11T18:48:41.284Z,7.05
2023-02-11T18:51:10.669Z,8.35
2023-02-11T18:53:37.826Z,8.50
2023-02-11T18:56:10.808Z,7.15
2023-02-11T18:58:38.314Z,9.15
2023-02-11T19:01:18.139Z,7.55
2023-02-11T19:03:45.508Z,7.40
2023-02-11T19:06:26.856Z,7.20
2023-02-11T19:08:57.547Z,6.75
2023-02-11T19:11:45.422Z,7.78
2023-02-11T19:14:12.788Z,8.23
2023-02-11T19:16:41.402Z,6.68
2023-02-11T19:19:08.813Z,6.22
2023-02-11T19:21:36.824Z,6.22
2023-02-11T19:24:07.982Z,5.80
2023-02-11T19:26:35.660Z,6.13
2023-02-11T19:29:02.621Z,6.00
2023-02-11T19:31:32.215Z,6.18
2023-02-11T19:34:00.601Z,5.57
2023-02-11T19:36:28.040Z,6.18
2023-02-11T19:38:55.545Z,6.88
2023-02-11T19:41:23.259Z,6.57
2023-02-11T19:43:53.747Z,5.75
2023-02-11T19:46:21.276Z,5.00
2023-02-11T19:48:49.503Z,5.10
2023-02-11T19:51:17.253Z,5.15
2023-02-11T19:53:45.624Z,5.75
2023-02-11T19:56:14.029Z,6.30
2023-02-11T19:58:42.028Z,5.93
2023-02-11T20:01:21.668Z,5.03
2023-02-11T20:03:52.975Z,5.65
2023-02-11T20:06:28.259Z,6.40
2023-02-11T20:09:07.538Z,4.85
2023-02-11T20:11:36.524Z,6.10
2023-02-11T20:14:03.888Z,5.93
2023-02-11T20:16:47.000Z,4.90
2023-02-11T20:19:23.797Z,5.55
2023-02-11T20:21:56.008Z,4.93
2023-02-11T20:24:24.198Z,5.07
2023-02-11T20:26:55.534Z,4.68
2023-02-11T20:29:23.551Z,5.45
2023-02-11T20:31:51.282Z,5.22
2023-02-11T20:34:18.401Z,5.97
2023-02-11T20:36:51.973Z,5.45
2023-02-11T20:39:21.966Z,5.20
2023-02-11T20:41:49.090Z,4.55
2023-02-11T20:44:16.171Z,4.82
2023-02-11T20:46:48.420Z,5.80
2023-02-11T20:49:19.583Z,5.55
2023-02-11T20:51:46.847Z,4.70
2023-02-11T20:54:18.640Z,5.28
2023-02-11T20:56:48.131Z,5.30
2023-02-11T20:59:16.809Z,4.97
2023-02-11T21:01:46.916Z,4.88
2023-02-11T21:04:29.835Z,4.22
2023-02-11T21:06:59.671Z,5.03
2023-02-11T21:09:29.808Z,5.55
2023-02-11T21:11:56.992Z,3.85
2023-02-11T21:14:24.944Z,5.32
2023-02-11T21:16:52.591Z,4.35
2023-02-11T21:19:20.192Z,4.85
2023-02-11T21:21:47.515Z,5.40
2023-02-11T21:24:15.243Z,5.40
2023-02-11T21:26:42.151Z,4.68
2023-02-11T21:29:09.164Z,5.40
2023-02-11T21:31:36.847Z,6.10
2023-02-11T21:34:04.561Z,5.20
2023-02-11T21:36:31.448Z,4.82
2023-02-11T21:38:58.496Z,5.10
2023-02-11T21:41:27.053Z,5.05
2023-02-11T21:43:53.915Z,4.45
2023-02-11T21:46:21.865Z,4.45
2023-02-11T21:48:49.317Z,6.00
2023-02-11T21:51:23.439Z,5.80
2023-02-11T21:54:03.600Z,5.13
2023-02-11T21:56:31.794Z,5.30
2023-02-11T21:59:00.184Z,5.97
2023-02-11T22:01:30.462Z,4.30
2023-02-11T22:03:58.328Z,5.22
2023-02-11T22:06:31.126Z,6.25
2023-02-11T22:08:58.793Z,5.72
2023-02-11T22:11:25.694Z,6.22
2023-02-11T22:13:56.457Z,7.05
2023-02-11T22:16:24.407Z,6.03
2023-02-11T22:18:51.970Z,6.82
2023-02-11T22:21:21.593Z,5.32
2023-02-11T22:23:48.945Z,4.90
2023-02-11T22:26:22.442Z,5.13
2023-02-11T22:28:50.833Z,5.68
2023-02-11T22:31:21.462Z,4.90
2023-02-11T22:33:48.978Z,5.68
2023-02-11T22:36:19.886Z,4.82
2023-02-11T22:38:47.132Z,5.43
2023-02-11T22:41:14.568Z,5.03
2023-02-11T22:43:43.130Z,5.07
2023-02-11T22:46:12.881Z,4.85
2023-02-11T22:48:40.199Z,5.18
2023-02-11T22:51:10.668Z,5.78
2023-02-11T22:53:37.638Z,5.32
2023-02-11T22:56:15.034Z,5.60
2023-02-11T22:58:42.440Z,5.85
2023-02-11T23:01:09.565Z,4.90
2023-02-11T23:03:36.589Z,5.55
2023-02-11T23:06:03.940Z,5.38
2023-02-11T23:08:32.554Z,5.60
2023-02-11T23:11:20.965Z,5.80
2023-02-11T23:13:50.131Z,6.55
2023-02-11T23:16:23.691Z,6.00
2023-02-11T23:18:51.609Z,5.93
2023-02-11T23:21:24.596Z,5.85
2023-02-11T23:23:57.147Z,5.63
2023-02-11T23:26:24.911Z,5.25
2023-02-11T23:28:52.052Z,5.93
2023-02-11T23:31:26.835Z,6.63
2023-02-11T23:33:54.240Z,6.15
2023-02-11T23:36:22.965Z,5.97
2023-02-11T23:38:50.044Z,6.30
2023-02-11T23:41:17.794Z,6.20
2023-02-11T23:43:44.847Z,7.03
2023-02-11T23:46:12.038Z,6.20
2023-02-11T23:48:40.569Z,6.47
2023-02-11T23:51:09.862Z,5.72
2023-02-11T23:53:40.501Z,6.47
2023-02-11T23:56:10.821Z,6.55
2023-02-11T23:58:37.969Z,7.20
